Terminal Aerodrome Forecast
Issued by NWS Jackson, KY

Home | Current Version | Previous Version | Text Only | Print | Product List | Glossary On
Versions: 1 2 3 4 5 6 7 8 9 10 11 12 13 14
000
FTUS43 KJKL 211120
TAFJKL
TAF
KJKL 211120Z 2112/2212 00000KT P6SM SCT200
     FM211800 00000KT 6SM -SHRA SCT050 BKN100
     FM211900 00000KT 6SM -SHRA VCTS SCT070CB BKN100
     FM220300 00000KT P6SM -SHRA BKN070=

USA.gov is the U.S. government's official web portal to all federal, state and local government web resources and services.